Time;durP1;ratioP1;P1;durP2;ratioP2;P2;SDS_P1;SDS_P2;PMS_P1;PMS_P2;Temp;Humidity;BMP_temperature;BMP_pressure;BME280_temperature;BME280_humidity;BME280_pressure;Samples;Min_cycle;Max_cycle;Signal;HPM_P1;HPM_P2
2022/03/13 00:00:13;;;;;;;6.40;3.90;;;;;;;;;;5110418;27;20887;-72
2022/03/13 00:02:41;;;;;;;8.90;5.90;;;;;;;;;;5113837;27;20561;-73
2022/03/13 00:05:11;;;;;;;11.83;4.67;;;;;;;;;;5119877;27;20527;-72
2022/03/13 00:07:40;;;;;;;5.60;4.10;;;;;;;;;;5119517;27;20446;-72
2022/03/13 00:10:08;;;;;;;6.63;4.60;;;;;;;;;;5119884;27;20459;-72
2022/03/13 00:12:37;;;;;;;5.57;4.47;;;;;;;;;;5119698;27;20463;-73
2022/03/13 00:15:09;;;;;;;11.90;5.43;;;;;;;;;;5119530;27;20567;-73
2022/03/13 00:17:38;;;;;;;9.50;4.77;;;;;;;;;;5119667;27;20514;-72
2022/03/13 00:20:10;;;;;;;8.73;5.20;;;;;;;;;;5119821;27;20472;-72
2022/03/13 00:22:39;;;;;;;8.73;5.10;;;;;;;;;;5119189;27;20451;-72
2022/03/13 00:25:09;;;;;;;8.77;4.03;;;;;;;;;;5119375;28;20944;-72
2022/03/13 00:27:40;;;;;;;7.43;4.50;;;;;;;;;;5118202;27;20455;-73
2022/03/13 00:30:10;;;;;;;7.13;4.60;;;;;;;;;;5118894;28;20466;-73
2022/03/13 00:32:39;;;;;;;8.30;4.47;;;;;;;;;;5115103;28;20516;-72
2022/03/13 00:35:10;;;;;;;9.20;4.47;;;;;;;;;;5119432;27;20462;-72
2022/03/13 00:37:41;;;;;;;8.17;4.50;;;;;;;;;;5118424;27;20483;-72
2022/03/13 00:40:16;;;;;;;5.07;3.83;;;;;;;;;;5118620;27;20462;-72
2022/03/13 00:42:44;;;;;;;9.23;4.77;;;;;;;;;;5119220;27;20457;-72
2022/03/13 00:45:23;;;;;;;11.70;6.40;;;;;;;;;;5119491;27;20734;-74
2022/03/13 00:48:24;;;;;;;10.27;4.90;;;;;;;;;;5119677;27;20505;-71
2022/03/13 00:50:54;;;;;;;7.27;4.97;;;;;;;;;;5119548;27;20531;-72
2022/03/13 00:53:24;;;;;;;8.27;5.30;;;;;;;;;;5118999;27;20537;-72
2022/03/13 00:55:58;;;;;;;9.30;5.37;;;;;;;;;;5118874;27;20486;-73
2022/03/13 00:58:40;;;;;;;7.87;5.60;;;;;;;;;;5118647;27;20454;-73
2022/03/13 01:01:27;;;;;;;9.40;5.83;;;;;;;;;;5118760;27;20528;-72
2022/03/13 01:04:05;;;;;;;9.20;4.60;;;;;;;;;;5119332;27;20469;-72
2022/03/13 01:06:46;;;;;;;12.80;4.23;;;;;;;;;;5118043;27;20443;-72
2022/03/13 01:09:23;;;;;;;7.17;5.00;;;;;;;;;;5118433;27;20874;-72
2022/03/13 01:12:06;;;;;;;7.23;5.17;;;;;;;;;;5118364;28;20943;-72
2022/03/13 01:14:42;;;;;;;10.40;4.97;;;;;;;;;;5118270;27;20450;-72
2022/03/13 01:17:16;;;;;;;7.90;4.97;;;;;;;;;;5118118;27;20494;-72
2022/03/13 01:20:05;;;;;;;5.67;3.97;;;;;;;;;;5118267;27;20532;-72
2022/03/13 01:22:38;;;;;;;9.60;4.83;;;;;;;;;;5118825;27;20905;-73
2022/03/13 01:25:09;;;;;;;9.23;5.40;;;;;;;;;;5118484;27;20462;-72
2022/03/13 01:30:26;;;;;;;8.50;5.80;;;;;;;;;;5115750;27;20442;-72
2022/03/13 01:33:03;;;;;;;8.20;5.43;;;;;;;;;;5117844;28;20565;-73
2022/03/13 01:35:44;;;;;;;7.53;4.97;;;;;;;;;;5117744;27;20451;-72
2022/03/13 01:38:18;;;;;;;7.10;4.13;;;;;;;;;;5118319;27;20486;-73
2022/03/13 01:40:51;;;;;;;8.33;4.23;;;;;;;;;;5116891;27;20799;-71
2022/03/13 01:46:09;;;;;;;8.03;5.20;;;;;;;;;;5114072;27;20573;-72
2022/03/13 01:48:57;;;;;;;7.17;5.30;;;;;;;;;;5116005;27;20451;-72
2022/03/13 01:51:47;;;;;;;9.77;4.77;;;;;;;;;;5117487;27;20878;-71
2022/03/13 01:54:26;;;;;;;8.80;5.27;;;;;;;;;;5117056;28;20461;-73
2022/03/13 01:57:00;;;;;;;10.87;5.03;;;;;;;;;;5116785;27;20493;-72
2022/03/13 01:59:31;;;;;;;6.90;4.97;;;;;;;;;;5117610;27;20456;-72
2022/03/13 02:02:07;;;;;;;7.77;4.37;;;;;;;;;;5117632;27;20474;-72
2022/03/13 02:04:44;;;;;;;5.10;3.83;;;;;;;;;;5118131;27;20454;-71
2022/03/13 02:07:15;;;;;;;8.53;5.30;;;;;;;;;;5116722;27;20481;-72
2022/03/13 02:09:55;;;;;;;6.00;4.50;;;;;;;;;;5117840;27;20465;-72
2022/03/13 02:12:23;;;;;;;8.13;5.70;;;;;;;;;;5117391;28;20465;-72
2022/03/13 02:14:51;;;;;;;10.33;5.43;;;;;;;;;;5106471;28;20863;-72
2022/03/13 02:17:25;;;;;;;9.47;4.60;;;;;;;;;;5096976;28;20487;-72
2022/03/13 02:19:54;;;;;;;8.63;4.43;;;;;;;;;;5114818;28;20467;-72
2022/03/13 02:22:22;;;;;;;13.17;5.60;;;;;;;;;;5105660;27;20817;-72
2022/03/13 02:24:53;;;;;;;7.93;5.20;;;;;;;;;;5096195;28;20739;-72
2022/03/13 02:27:22;;;;;;;10.43;5.00;;;;;;;;;;5096594;28;20455;-72
2022/03/13 02:29:52;;;;;;;9.67;6.00;;;;;;;;;;5097307;28;20521;-73
2022/03/13 02:32:20;;;;;;;6.20;4.90;;;;;;;;;;5095600;28;20464;-72
2022/03/13 02:34:49;;;;;;;9.23;5.33;;;;;;;;;;5097441;28;20474;-71
2022/03/13 02:37:31;;;;;;;7.17;5.30;;;;;;;;;;5096963;28;20570;-71
2022/03/13 02:40:01;;;;;;;7.07;4.93;;;;;;;;;;5114356;27;20458;-71
2022/03/13 02:42:28;;;;;;;5.37;4.50;;;;;;;;;;5116015;27;20760;-72
2022/03/13 02:45:00;;;;;;;7.63;4.10;;;;;;;;;;5117417;27;20956;-71
2022/03/13 02:47:27;;;;;;;11.50;5.47;;;;;;;;;;5116591;27;20494;-72
2022/03/13 02:49:55;;;;;;;7.80;5.40;;;;;;;;;;5117216;28;20489;-72
2022/03/13 02:52:23;;;;;;;8.77;4.77;;;;;;;;;;5117236;28;20461;-72
2022/03/13 02:54:55;;;;;;;8.23;5.40;;;;;;;;;;5116938;28;20535;-72
2022/03/13 02:57:24;;;;;;;7.20;5.37;;;;;;;;;;5117054;28;20670;-72
2022/03/13 02:59:52;;;;;;;8.93;5.60;;;;;;;;;;5117551;28;20469;-73
2022/03/13 03:02:22;;;;;;;9.43;4.90;;;;;;;;;;5116761;28;20466;-72
2022/03/13 03:04:53;;;;;;;10.00;5.23;;;;;;;;;;5116898;28;20873;-72
2022/03/13 03:07:23;;;;;;;7.87;4.77;;;;;;;;;;5116864;28;20453;-72
2022/03/13 03:09:51;;;;;;;8.57;5.23;;;;;;;;;;5117019;28;20469;-72
2022/03/13 03:12:18;;;;;;;9.63;4.77;;;;;;;;;;5116788;28;20475;-72
2022/03/13 03:14:53;;;;;;;9.20;4.63;;;;;;;;;;5096459;28;20459;-72
2022/03/13 03:17:22;;;;;;;9.97;4.37;;;;;;;;;;5095859;28;20486;-72
2022/03/13 03:19:50;;;;;;;6.30;4.60;;;;;;;;;;5114279;28;20758;-72
2022/03/13 03:22:17;;;;;;;6.87;4.53;;;;;;;;;;5117218;28;20451;-72
2022/03/13 03:24:46;;;;;;;7.13;4.90;;;;;;;;;;5115866;28;20805;-72
2022/03/13 03:27:18;;;;;;;8.33;4.97;;;;;;;;;;5115940;28;20466;-72
2022/03/13 03:29:46;;;;;;;9.73;5.00;;;;;;;;;;5116046;28;20475;-73
2022/03/13 03:32:15;;;;;;;8.60;5.00;;;;;;;;;;5116733;28;20542;-73
2022/03/13 03:34:43;;;;;;;5.93;3.63;;;;;;;;;;5116357;28;20466;-73
2022/03/13 03:37:11;;;;;;;6.97;4.70;;;;;;;;;;5116404;28;20551;-73
2022/03/13 03:39:39;;;;;;;7.97;4.90;;;;;;;;;;5116183;28;20963;-72
2022/03/13 03:42:07;;;;;;;9.17;5.23;;;;;;;;;;5115757;28;20655;-73
2022/03/13 03:44:35;;;;;;;4.90;4.07;;;;;;;;;;5115948;28;20467;-73
2022/03/13 03:47:03;;;;;;;6.10;4.00;;;;;;;;;;5116437;28;20889;-72
2022/03/13 03:49:33;;;;;;;12.80;5.50;;;;;;;;;;5115837;28;20463;-73
2022/03/13 03:52:04;;;;;;;8.17;4.90;;;;;;;;;;5116269;28;20527;-73
2022/03/13 03:54:32;;;;;;;8.90;5.40;;;;;;;;;;5115827;28;20735;-73
2022/03/13 03:57:00;;;;;;;7.33;4.73;;;;;;;;;;5116137;28;20475;-73
2022/03/13 03:59:28;;;;;;;8.27;5.53;;;;;;;;;;5117523;28;20486;-73
2022/03/13 04:01:56;;;;;;;10.17;6.13;;;;;;;;;;5120500;27;20533;-73
2022/03/13 04:04:24;;;;;;;10.60;5.50;;;;;;;;;;5120364;27;20462;-73
2022/03/13 04:06:55;;;;;;;8.03;5.57;;;;;;;;;;5118646;27;20457;-72
2022/03/13 04:09:22;;;;;;;5.93;4.23;;;;;;;;;;5120017;27;20477;-73
2022/03/13 04:11:52;;;;;;;8.13;4.90;;;;;;;;;;5120299;27;20727;-73
2022/03/13 04:14:21;;;;;;;10.83;4.93;;;;;;;;;;5119693;28;20455;-72
2022/03/13 04:16:51;;;;;;;8.07;4.67;;;;;;;;;;5119711;27;20459;-73
2022/03/13 04:19:21;;;;;;;10.80;5.10;;;;;;;;;;5120448;27;20551;-72
2022/03/13 04:21:53;;;;;;;8.70;5.60;;;;;;;;;;5119913;28;20459;-73
2022/03/13 04:24:21;;;;;;;10.27;5.50;;;;;;;;;;5120240;27;20459;-72
2022/03/13 04:26:49;;;;;;;9.33;5.70;;;;;;;;;;5119388;27;20457;-72
2022/03/13 04:29:18;;;;;;;7.03;5.20;;;;;;;;;;5119055;27;20531;-72
2022/03/13 04:31:48;;;;;;;10.60;5.77;;;;;;;;;;5118934;27;20526;-72
2022/03/13 04:34:16;;;;;;;9.57;5.40;;;;;;;;;;5119276;27;20476;-72
2022/03/13 04:36:45;;;;;;;12.60;5.07;;;;;;;;;;5119607;27;20466;-72
2022/03/13 04:39:16;;;;;;;13.13;4.93;;;;;;;;;;5118909;27;20854;-72
2022/03/13 04:41:43;;;;;;;10.23;5.97;;;;;;;;;;5119619;27;20454;-72
2022/03/13 04:44:14;;;;;;;8.13;5.10;;;;;;;;;;5118994;27;20465;-72
2022/03/13 04:46:44;;;;;;;9.80;5.80;;;;;;;;;;5118876;27;20462;-72
2022/03/13 04:49:12;;;;;;;8.30;5.40;;;;;;;;;;5119304;27;20505;-72
2022/03/13 04:51:40;;;;;;;7.07;4.83;;;;;;;;;;5118263;27;20470;-72
2022/03/13 04:54:08;;;;;;;9.40;5.47;;;;;;;;;;5117362;27;20457;-72
2022/03/13 04:56:37;;;;;;;7.13;4.63;;;;;;;;;;5118983;27;21047;-72
2022/03/13 04:59:07;;;;;;;11.37;5.03;;;;;;;;;;5118953;27;20478;-72
2022/03/13 05:01:34;;;;;;;8.90;5.87;;;;;;;;;;5119716;27;20454;-72
2022/03/13 05:04:02;;;;;;;9.23;5.07;;;;;;;;;;5119441;27;20459;-72
2022/03/13 05:06:30;;;;;;;12.30;5.03;;;;;;;;;;5119328;27;20458;-74
2022/03/13 05:08:58;;;;;;;8.80;5.00;;;;;;;;;;5119217;27;20462;-72
2022/03/13 05:11:29;;;;;;;8.37;4.97;;;;;;;;;;5118330;27;20466;-73
2022/03/13 05:13:58;;;;;;;6.70;5.07;;;;;;;;;;5118903;27;20768;-73
2022/03/13 05:16:26;;;;;;;10.37;4.97;;;;;;;;;;5119179;27;20455;-73
2022/03/13 05:18:54;;;;;;;10.23;5.37;;;;;;;;;;5118862;27;20932;-73
2022/03/13 05:21:21;;;;;;;7.63;5.43;;;;;;;;;;5119354;27;20455;-73
2022/03/13 05:23:49;;;;;;;7.00;4.70;;;;;;;;;;5118243;27;20844;-73
2022/03/13 05:26:19;;;;;;;10.00;4.93;;;;;;;;;;5117892;27;20442;-73
2022/03/13 05:28:47;;;;;;;8.50;5.37;;;;;;;;;;5118842;27;20505;-73
2022/03/13 05:31:19;;;;;;;8.20;4.47;;;;;;;;;;5117819;27;20466;-73
2022/03/13 05:33:47;;;;;;;9.50;4.17;;;;;;;;;;5118189;27;20447;-73
2022/03/13 05:36:15;;;;;;;8.30;4.87;;;;;;;;;;5117750;27;20858;-73
2022/03/13 05:38:43;;;;;;;7.60;4.47;;;;;;;;;;5118371;27;20487;-73
2022/03/13 05:41:11;;;;;;;8.27;5.10;;;;;;;;;;5118033;27;20471;-73
2022/03/13 05:43:43;;;;;;;7.80;5.37;;;;;;;;;;5103039;28;20470;-73
2022/03/13 05:46:11;;;;;;;9.07;4.50;;;;;;;;;;5096978;28;20463;-73
2022/03/13 05:48:41;;;;;;;8.13;5.27;;;;;;;;;;5110760;27;20458;-73
2022/03/13 05:51:08;;;;;;;8.17;4.90;;;;;;;;;;5118171;27;20454;-73
2022/03/13 05:53:39;;;;;;;9.73;5.20;;;;;;;;;;5117853;27;20450;-73
2022/03/13 05:56:07;;;;;;;5.80;4.10;;;;;;;;;;5118158;27;20473;-73
2022/03/13 05:58:35;;;;;;;8.40;4.40;;;;;;;;;;5117976;27;20493;-73
2022/03/13 06:01:04;;;;;;;7.37;5.17;;;;;;;;;;5117320;27;20461;-73
2022/03/13 06:03:32;;;;;;;6.70;4.47;;;;;;;;;;5117372;27;20469;-73
2022/03/13 06:06:03;;;;;;;8.67;5.60;;;;;;;;;;5118254;27;20465;-73
2022/03/13 06:08:34;;;;;;;7.77;5.30;;;;;;;;;;5117426;27;20442;-72
2022/03/13 06:11:05;;;;;;;7.70;4.80;;;;;;;;;;5117954;27;20538;-72
2022/03/13 06:13:32;;;;;;;8.03;4.63;;;;;;;;;;5117517;27;20455;-71
2022/03/13 06:16:01;;;;;;;10.60;5.17;;;;;;;;;;5117082;28;20688;-72
2022/03/13 06:18:30;;;;;;;10.30;5.53;;;;;;;;;;5117421;27;20486;-73
2022/03/13 06:20:58;;;;;;;15.30;5.70;;;;;;;;;;5116765;27;20471;-73
2022/03/13 06:23:29;;;;;;;9.93;5.20;;;;;;;;;;5116828;28;20455;-73
2022/03/13 06:25:59;;;;;;;9.37;5.27;;;;;;;;;;5116952;27;20885;-73
2022/03/13 06:28:27;;;;;;;13.70;7.10;;;;;;;;;;5116619;27;20545;-73
2022/03/13 06:30:55;;;;;;;11.20;5.67;;;;;;;;;;5116941;28;20447;-73
2022/03/13 06:33:27;;;;;;;15.17;5.70;;;;;;;;;;5116611;28;20545;-73
2022/03/13 06:35:54;;;;;;;8.13;5.03;;;;;;;;;;5116733;28;20462;-72
2022/03/13 06:38:22;;;;;;;9.20;4.37;;;;;;;;;;5115783;28;20551;-72
2022/03/13 06:40:52;;;;;;;10.23;5.60;;;;;;;;;;5116062;27;20451;-72
2022/03/13 06:43:19;;;;;;;5.73;4.37;;;;;;;;;;5116611;28;20459;-72
2022/03/13 06:45:49;;;;;;;9.60;5.40;;;;;;;;;;5116672;28;20462;-72
2022/03/13 06:48:21;;;;;;;9.63;5.30;;;;;;;;;;5112033;28;20459;-72
2022/03/13 06:50:56;;;;;;;8.40;5.03;;;;;;;;;;5097980;28;20459;-72
2022/03/13 06:53:28;;;;;;;7.97;5.30;;;;;;;;;;5114659;27;20458;-73
2022/03/13 06:55:57;;;;;;;10.37;5.30;;;;;;;;;;5116407;28;21258;-72
2022/03/13 06:58:26;;;;;;;11.33;5.57;;;;;;;;;;5116555;27;20482;-72
2022/03/13 07:00:54;;;;;;;11.77;5.10;;;;;;;;;;5117109;28;20523;-72
2022/03/13 07:03:27;;;;;;;7.50;4.70;;;;;;;;;;5117003;28;20450;-72
2022/03/13 07:05:55;;;;;;;9.23;5.20;;;;;;;;;;5117532;28;20558;-71
2022/03/13 07:08:23;;;;;;;7.57;5.00;;;;;;;;;;5116121;28;20462;-71
2022/03/13 07:10:53;;;;;;;7.23;4.90;;;;;;;;;;5117024;28;20508;-72
2022/03/13 07:13:25;;;;;;;7.80;5.00;;;;;;;;;;5116181;28;20522;-72
2022/03/13 07:15:53;;;;;;;10.73;5.50;;;;;;;;;;5117731;28;20455;-71
2022/03/13 07:18:21;;;;;;;5.33;4.57;;;;;;;;;;5116402;28;20909;-72
2022/03/13 07:20:52;;;;;;;5.93;4.07;;;;;;;;;;5116531;28;20912;-72
2022/03/13 07:23:19;;;;;;;8.90;4.27;;;;;;;;;;5115831;28;20447;-72
2022/03/13 07:25:50;;;;;;;9.10;5.23;;;;;;;;;;5116044;28;20458;-70
2022/03/13 07:28:17;;;;;;;7.33;4.20;;;;;;;;;;5115716;28;20553;-70
2022/03/13 07:30:46;;;;;;;8.13;4.70;;;;;;;;;;5115999;28;20451;-71
2022/03/13 07:33:14;;;;;;;7.37;4.73;;;;;;;;;;5115616;28;20879;-71
2022/03/13 07:35:45;;;;;;;9.17;4.70;;;;;;;;;;5119152;27;20454;-72
2022/03/13 07:38:13;;;;;;;3.07;1.77;;;;;;;;;;5120100;27;20560;-71
2022/03/13 07:40:41;;;;;;;6.53;4.27;;;;;;;;;;5120268;27;20443;-71
2022/03/13 07:43:09;;;;;;;8.03;4.73;;;;;;;;;;5119823;27;20455;-71
2022/03/13 07:45:37;;;;;;;7.13;4.83;;;;;;;;;;5119305;27;20466;-71
2022/03/13 07:48:06;;;;;;;10.93;5.60;;;;;;;;;;5113965;27;20550;-71
2022/03/13 07:50:34;;;;;;;9.03;5.40;;;;;;;;;;5119738;27;20450;-71
2022/03/13 07:53:02;;;;;;;7.53;4.20;;;;;;;;;;5119830;28;20459;-71
2022/03/13 07:55:30;;;;;;;11.13;5.10;;;;;;;;;;5119924;27;20450;-71
2022/03/13 07:58:07;;;;;;;11.27;4.83;;;;;;;;;;5119645;27;20481;-71
2022/03/13 08:00:35;;;;;;;6.90;3.17;;;;;;;;;;5118964;27;20442;-71
2022/03/13 08:03:03;;;;;;;9.50;6.00;;;;;;;;;;5119761;27;20847;-71
2022/03/13 08:05:40;;;;;;;9.63;5.93;;;;;;;;;;5118586;27;20827;-72
2022/03/13 08:08:09;;;;;;;8.40;5.30;;;;;;;;;;5118300;27;20813;-71
2022/03/13 08:10:41;;;;;;;8.97;5.60;;;;;;;;;;5107408;28;20545;-71
2022/03/13 08:13:34;;;;;;;8.65;4.53;;;;;;;;;;5098809;28;20480;-72
2022/03/13 08:19:22;;;;;;;7.00;4.60;;;;;;;;;;5098309;28;20529;-71
2022/03/13 08:28:16;;;;;;;11.13;4.63;;;;;;;;;;4992073;28;20561;-70
2022/03/13 08:37:09;;;;;;;9.03;5.77;;;;;;;;;;4957555;28;20800;-71
2022/03/13 08:42:36;;;;;;;8.33;4.30;;;;;;;;;;5061739;28;20915;-72
2022/03/13 08:47:57;;;;;;;6.63;3.60;;;;;;;;;;5096520;28;20564;-72
2022/03/13 08:50:29;;;;;;;7.83;4.87;;;;;;;;;;5104594;28;20859;-72
2022/03/13 08:55:59;;;;;;;9.13;5.67;;;;;;;;;;5107836;28;20458;-72
2022/03/13 08:58:37;;;;;;;8.30;4.97;;;;;;;;;;5116524;27;20486;-74
2022/03/13 09:01:07;;;;;;;9.03;5.40;;;;;;;;;;5114395;27;20455;-71
2022/03/13 09:03:57;;;;;;;10.10;5.50;;;;;;;;;;5110043;27;20558;-70
2022/03/13 09:06:25;;;;;;;12.87;5.20;;;;;;;;;;5106191;28;20447;-71
2022/03/13 09:08:57;;;;;;;7.80;5.30;;;;;;;;;;5115074;27;20458;-70
2022/03/13 09:11:25;;;;;;;7.57;5.53;;;;;;;;;;5101243;28;20459;-71
2022/03/13 09:14:09;;;;;;;6.53;3.83;;;;;;;;;;5110312;27;20966;-71
2022/03/13 09:16:42;;;;;;;7.00;4.60;;;;;;;;;;5110386;27;20459;-71
2022/03/13 09:19:20;;;;;;;8.83;4.67;;;;;;;;;;5107974;28;20802;-71
2022/03/13 09:21:49;;;;;;;9.50;4.60;;;;;;;;;;5102637;28;20470;-71
2022/03/13 09:24:37;;;;;;;8.00;4.67;;;;;;;;;;5110524;28;20748;-71
2022/03/13 09:27:07;;;;;;;6.73;4.80;;;;;;;;;;5102428;27;20461;-71
2022/03/13 09:29:58;;;;;;;7.30;4.87;;;;;;;;;;5114940;27;20455;-72
2022/03/13 09:32:28;;;;;;;7.87;4.00;;;;;;;;;;5105599;27;20467;-72
2022/03/13 09:34:56;;;;;;;8.10;4.40;;;;;;;;;;5101514;28;20527;-71
2022/03/13 09:37:25;;;;;;;10.37;5.90;;;;;;;;;;5103143;28;20970;-71
2022/03/13 09:45:49;;;;;;;9.03;4.53;;;;;;;;;;5099969;28;20860;-71
2022/03/13 09:48:28;;;;;;;6.87;4.67;;;;;;;;;;5100091;28;20451;-71
2022/03/13 09:51:31;;;;;;;;;;;;;;;;;;;;;
2022/03/13 09:54:06;;;;;;;7.57;5.37;;;;;;;;;;5114381;27;20457;-71
2022/03/13 09:56:42;;;;;;;6.83;4.63;;;;;;;;;;5101269;27;20460;-70
2022/03/13 09:59:25;;;;;;;6.53;4.30;;;;;;;;;;5115351;27;21000;-70
2022/03/13 10:01:56;;;;;;;10.60;4.73;;;;;;;;;;5105203;27;20480;-71
2022/03/13 10:04:24;;;;;;;7.40;5.37;;;;;;;;;;5095768;28;20892;-71
2022/03/13 10:07:01;;;;;;;6.10;3.90;;;;;;;;;;5107947;28;20847;-71
2022/03/13 10:09:31;;;;;;;14.47;6.23;;;;;;;;;;5108545;28;20462;-72
2022/03/13 10:12:06;;;;;;;6.70;5.10;;;;;;;;;;5109223;28;20458;-70
2022/03/13 10:14:34;;;;;;;8.30;4.70;;;;;;;;;;5105030;28;20480;-70
2022/03/13 10:17:05;;;;;;;14.10;5.47;;;;;;;;;;5097677;28;20452;-71
2022/03/13 10:19:33;;;;;;;6.10;4.30;;;;;;;;;;5108456;28;20570;-70
2022/03/13 10:22:01;;;;;;;7.97;5.00;;;;;;;;;;5107691;28;20487;-71
2022/03/13 10:24:35;;;;;;;10.63;6.60;;;;;;;;;;5111813;27;20878;-72
2022/03/13 10:27:12;;;;;;;6.87;5.20;;;;;;;;;;5097151;28;20867;-71
2022/03/13 10:29:44;;;;;;;5.73;3.30;;;;;;;;;;5111741;27;20475;-71
2022/03/13 10:32:14;;;;;;;6.93;4.10;;;;;;;;;;5111583;28;20507;-70
2022/03/13 10:34:58;;;;;;;7.03;4.87;;;;;;;;;;5104624;28;20470;-70
2022/03/13 10:37:51;;;;;;;7.80;4.93;;;;;;;;;;5103847;28;20448;-72
2022/03/13 10:40:24;;;;;;;8.60;5.13;;;;;;;;;;5081513;28;20732;-70
2022/03/13 10:43:06;;;;;;;7.67;3.77;;;;;;;;;;5096993;28;20451;-72
2022/03/13 10:45:53;;;;;;;8.87;4.90;;;;;;;;;;5106164;27;20459;-70
2022/03/13 10:48:28;;;;;;;6.57;4.97;;;;;;;;;;5111380;27;20458;-70
2022/03/13 10:51:00;;;;;;;10.83;6.20;;;;;;;;;;5099921;28;20455;-70
2022/03/13 10:53:32;;;;;;;7.37;4.97;;;;;;;;;;5094724;28;20488;-70
2022/03/13 10:56:16;;;;;;;6.17;4.30;;;;;;;;;;5094276;28;20484;-72
2022/03/13 10:58:51;;;;;;;12.30;5.03;;;;;;;;;;5094373;28;20953;-72
2022/03/13 11:01:25;;;;;;;8.73;4.80;;;;;;;;;;5095090;28;20463;-72
2022/03/13 11:04:15;;;;;;;6.27;4.60;;;;;;;;;;5094863;28;20580;-69
2022/03/13 11:06:56;;;;;;;8.67;5.50;;;;;;;;;;5095207;28;20450;-71
2022/03/13 11:09:24;;;;;;;7.73;5.10;;;;;;;;;;5096395;28;20451;-70
2022/03/13 11:12:04;;;;;;;10.17;4.90;;;;;;;;;;5097575;28;20463;-70
2022/03/13 11:14:40;;;;;;;8.50;5.20;;;;;;;;;;5097626;28;20461;-71
2022/03/13 11:17:08;;;;;;;6.17;4.27;;;;;;;;;;5101684;28;20442;-72
2022/03/13 11:19:39;;;;;;;6.40;4.13;;;;;;;;;;5119389;28;20876;-71
2022/03/13 11:22:08;;;;;;;7.17;5.33;;;;;;;;;;5120369;27;20829;-71
2022/03/13 11:24:36;;;;;;;5.90;4.13;;;;;;;;;;5119880;27;20455;-71
2022/03/13 11:27:05;;;;;;;9.00;4.97;;;;;;;;;;5118819;27;20442;-72
2022/03/13 11:29:44;;;;;;;7.23;4.80;;;;;;;;;;5116437;27;20475;-71
2022/03/13 11:32:34;;;;;;;7.77;5.07;;;;;;;;;;5117627;27;20466;-72
2022/03/13 11:35:27;;;;;;;10.37;5.20;;;;;;;;;;5117501;27;20469;-72
2022/03/13 11:38:16;;;;;;;8.53;4.90;;;;;;;;;;5118812;27;20483;-72
2022/03/13 11:40:53;;;;;;;5.33;4.13;;;;;;;;;;5119821;27;20486;-72
2022/03/13 11:43:37;;;;;;;10.60;5.77;;;;;;;;;;5118799;27;20532;-73
2022/03/13 11:46:04;;;;;;;6.43;4.40;;;;;;;;;;5118365;27;20462;-71
2022/03/13 11:48:37;;;;;;;7.30;4.50;;;;;;;;;;5116890;27;20458;-71
2022/03/13 11:51:05;;;;;;;7.37;5.30;;;;;;;;;;5102910;27;20467;-71
2022/03/13 11:53:49;;;;;;;9.10;6.63;;;;;;;;;;5097164;28;20455;-71
2022/03/13 11:56:30;;;;;;;7.50;4.90;;;;;;;;;;5096840;28;20830;-71
2022/03/13 11:59:19;;;;;;;8.77;5.55;;;;;;;;;;5114470;27;20928;-72
2022/03/13 12:01:52;;;;;;;8.98;5.90;;;;;;;;;;5116812;27;20435;-71
2022/03/13 12:04:23;;;;;;;7.65;5.65;;;;;;;;;;5117478;27;20457;-71
2022/03/13 12:06:56;;;;;;;5.07;4.20;;;;;;;;;;5118716;27;20209;-71
2022/03/13 12:09:42;;;;;;;8.17;4.67;;;;;;;;;;5106636;27;20458;-70
2022/03/13 12:12:12;;;;;;;8.10;4.77;;;;;;;;;;5098046;28;20566;-72
2022/03/13 12:15:09;;;;;;;8.17;5.23;;;;;;;;;;5098454;28;20552;-72
2022/03/13 12:17:47;;;;;;;10.10;4.43;;;;;;;;;;5097628;28;20731;-70
2022/03/13 12:20:37;;;;;;;8.97;4.80;;;;;;;;;;5101802;27;20489;-72
2022/03/13 12:23:05;;;;;;;8.80;5.83;;;;;;;;;;5099111;28;20546;-72
2022/03/13 12:25:34;;;;;;;5.83;4.40;;;;;;;;;;5098536;28;20534;-72
2022/03/13 12:28:03;;;;;;;6.70;4.90;;;;;;;;;;5097983;28;20475;-70
2022/03/13 12:30:39;;;;;;;7.30;5.60;;;;;;;;;;5098467;28;20483;-72
2022/03/13 12:33:10;;;;;;;5.97;4.70;;;;;;;;;;5098313;28;20459;-71
2022/03/13 12:36:04;;;;;;;10.07;5.00;;;;;;;;;;5098409;28;20469;-72
2022/03/13 12:38:53;;;;;;;;;;;;;;;;;;;;;
2022/03/13 12:44:22;;;;;;;7.70;5.20;;;;;;;;;;5115525;28;20472;-71
2022/03/13 12:52:59;;;;;;;8.67;4.40;;;;;;;;;;5101577;28;20216;-71
2022/03/13 12:55:32;;;;;;;5.60;4.57;;;;;;;;;;5117271;28;20519;-70
2022/03/13 12:58:09;;;;;;;6.83;4.90;;;;;;;;;;5117044;28;20451;-71
2022/03/13 13:00:40;;;;;;;7.43;4.77;;;;;;;;;;5116289;28;20510;-71
2022/03/13 13:03:13;;;;;;;8.10;4.30;;;;;;;;;;5116329;28;20451;-71
2022/03/13 13:05:50;;;;;;;9.93;4.83;;;;;;;;;;5116340;28;20823;-71
2022/03/13 13:08:25;;;;;;;7.00;4.53;;;;;;;;;;5113244;28;20569;-71
2022/03/13 13:14:36;;;;;;;7.77;4.73;;;;;;;;;;5098795;28;20443;-71
2022/03/13 13:17:24;;;;;;;7.77;5.30;;;;;;;;;;5099319;28;20470;-70
2022/03/13 13:20:09;;;;;;;6.50;4.67;;;;;;;;;;5097120;28;20483;-71
2022/03/13 13:22:57;;;;;;;9.07;6.33;;;;;;;;;;5096272;28;20515;-70
2022/03/13 13:25:29;;;;;;;7.33;4.67;;;;;;;;;;5084417;28;20476;-71
2022/03/13 13:28:12;;;;;;;8.47;4.90;;;;;;;;;;5095882;28;20486;-71
2022/03/13 13:37:00;;;;;;;8.60;4.97;;;;;;;;;;5109293;28;20891;-71
2022/03/13 13:39:47;;;;;;;8.40;4.73;;;;;;;;;;5111987;28;20443;-70
2022/03/13 13:43:12;;;;;;;;;;;;;;;;;;;;;
2022/03/13 13:48:47;;;;;;;6.33;4.87;;;;;;;;;;5092713;28;20464;-70
2022/03/13 13:51:23;;;;;;;5.17;3.97;;;;;;;;;;5102693;28;20435;-72
2022/03/13 13:54:00;;;;;;;6.70;3.47;;;;;;;;;;5116262;28;20466;-70
2022/03/13 13:56:39;;;;;;;6.90;4.30;;;;;;;;;;5114483;28;20570;-71
2022/03/13 13:59:19;;;;;;;6.43;5.13;;;;;;;;;;5114373;28;20453;-70
2022/03/13 14:01:51;;;;;;;9.43;5.20;;;;;;;;;;5116378;28;20718;-70
2022/03/13 14:04:19;;;;;;;7.78;4.60;;;;;;;;;;5114268;28;20886;-70
2022/03/13 14:06:59;;;;;;;7.27;4.73;;;;;;;;;;5115572;28;20201;-71
2022/03/13 14:09:28;;;;;;;7.90;5.27;;;;;;;;;;5116798;28;20459;-73
2022/03/13 14:12:00;;;;;;;11.30;7.00;;;;;;;;;;5116287;28;20447;-71
2022/03/13 14:14:33;;;;;;;6.90;5.10;;;;;;;;;;5114023;28;20453;-75
2022/03/13 14:19:55;;;;;;;11.80;5.53;;;;;;;;;;5092224;28;20586;-71
2022/03/13 14:22:33;;;;;;;8.13;5.00;;;;;;;;;;5095809;28;20866;-70
2022/03/13 14:25:21;;;;;;;8.33;6.10;;;;;;;;;;5094374;28;20454;-71
2022/03/13 14:27:57;;;;;;;8.63;4.70;;;;;;;;;;5107731;28;20538;-71
2022/03/13 14:30:38;;;;;;;7.93;4.60;;;;;;;;;;5095769;28;20440;-70
2022/03/13 14:33:07;;;;;;;6.93;4.60;;;;;;;;;;5100996;28;20886;-71
2022/03/13 14:35:35;;;;;;;7.87;5.40;;;;;;;;;;5098676;28;20513;-71
2022/03/13 14:38:26;;;;;;;9.57;5.60;;;;;;;;;;5100922;28;20452;-71
2022/03/13 14:46:29;;;;;;;6.80;4.87;;;;;;;;;;5091401;28;20464;-70
2022/03/13 14:49:01;;;;;;;7.50;4.33;;;;;;;;;;5116413;27;20970;-71
2022/03/13 14:54:26;;;;;;;6.10;4.53;;;;;;;;;;5111990;28;20449;-71
2022/03/13 14:57:00;;;;;;;6.93;4.60;;;;;;;;;;5116416;28;20791;-70
2022/03/13 14:59:36;;;;;;;7.10;4.80;;;;;;;;;;5116409;28;20859;-70
2022/03/13 15:02:14;;;;;;;7.00;4.70;;;;;;;;;;5115976;28;20957;-70
2022/03/13 15:07:29;;;;;;;9.20;6.03;;;;;;;;;;5113069;28;21025;-70
2022/03/13 15:10:13;;;;;;;9.03;4.90;;;;;;;;;;5116368;28;20486;-71
2022/03/13 15:12:44;;;;;;;7.57;5.40;;;;;;;;;;5114519;28;20878;-70
2022/03/13 15:15:49;;;;;;;7.00;4.97;;;;;;;;;;5111208;28;20446;-70
2022/03/13 15:18:20;;;;;;;18.77;5.27;;;;;;;;;;5115080;28;20507;-70
2022/03/13 15:20:48;;;;;;;9.60;6.43;;;;;;;;;;5115144;28;20591;-70
2022/03/13 15:23:23;;;;;;;8.77;5.50;;;;;;;;;;5113288;28;20737;-70
2022/03/13 15:25:51;;;;;;;8.57;6.17;;;;;;;;;;5114236;28;20870;-71
2022/03/13 15:28:22;;;;;;;6.80;4.57;;;;;;;;;;5114477;28;20869;-71
2022/03/13 15:31:08;;;;;;;6.23;4.83;;;;;;;;;;5115874;28;20474;-70
2022/03/13 15:33:36;;;;;;;8.67;6.40;;;;;;;;;;5115742;28;20783;-71
2022/03/13 15:36:21;;;;;;;7.23;5.17;;;;;;;;;;5113991;28;20462;-69
2022/03/13 15:38:53;;;;;;;8.33;5.60;;;;;;;;;;5116676;28;20489;-71
2022/03/13 15:44:51;;;;;;;7.10;4.40;;;;;;;;;;5108536;28;20509;-71
2022/03/13 15:50:38;;;;;;;7.13;5.23;;;;;;;;;;5095840;28;20442;-70
2022/03/13 15:53:09;;;;;;;8.60;4.00;;;;;;;;;;5111314;28;20884;-69
2022/03/13 15:56:05;;;;;;;5.90;4.90;;;;;;;;;;5114838;28;20494;-71
2022/03/13 15:58:38;;;;;;;8.20;5.27;;;;;;;;;;5088479;27;20462;-70
2022/03/13 16:01:19;;;;;;;7.33;4.90;;;;;;;;;;5117090;27;20833;-70
2022/03/13 16:03:57;;;;;;;8.60;5.20;;;;;;;;;;5115196;27;20486;-74
2022/03/13 16:09:33;;;;;;;9.20;5.47;;;;;;;;;;5085053;27;20501;-71
2022/03/13 16:12:20;;;;;;;7.00;5.93;;;;;;;;;;5119729;27;20473;-70
2022/03/13 16:15:17;;;;;;;6.27;4.77;;;;;;;;;;5114489;28;20867;-72
2022/03/13 16:18:06;;;;;;;6.87;4.90;;;;;;;;;;5098137;28;20455;-71
2022/03/13 16:20:47;;;;;;;6.43;5.10;;;;;;;;;;5109351;28;20485;-71
2022/03/13 16:23:34;;;;;;;6.83;5.03;;;;;;;;;;5119635;27;20534;-71
2022/03/13 16:26:19;;;;;;;;;;;;;;;;;;;;;
2022/03/13 16:28:48;;;;;;;8.57;4.90;;;;;;;;;;5118228;27;20456;-71
2022/03/13 16:31:25;;;;;;;7.87;5.20;;;;;;;;;;5101712;28;20467;-71
2022/03/13 16:34:03;;;;;;;6.40;4.77;;;;;;;;;;5118391;27;20465;-72
2022/03/13 16:40:07;;;;;;;;;;;;;;;;;;;;;
2022/03/13 16:42:57;;;;;;;7.53;5.77;;;;;;;;;;5042683;28;20470;-71
2022/03/13 16:45:42;;;;;;;9.47;5.40;;;;;;;;;;5107803;27;20459;-72
2022/03/13 16:48:20;;;;;;;15.93;5.57;;;;;;;;;;5119145;27;20454;-73